createdAt,value
2022-11-01T00:04:00.727Z,101591.97
2022-11-01T00:08:02.368Z,101589.88
2022-11-01T00:12:04.314Z,101575.38
2022-11-01T00:16:06.370Z,101592.19
2022-11-01T00:20:08.272Z,101584.25
2022-11-01T00:24:09.812Z,101578.91
2022-11-01T00:28:11.258Z,101574.31
2022-11-01T00:32:12.677Z,101569.13
2022-11-01T00:36:14.425Z,101552.47
2022-11-01T00:40:16.111Z,101554.34
2022-11-01T00:44:17.540Z,101552.63
2022-11-01T00:48:18.940Z,101548.22
2022-11-01T00:52:20.405Z,101528.69
2022-11-01T00:56:21.799Z,101510.28
2022-11-01T01:00:23.580Z,101511.19
2022-11-01T01:04:25.011Z,101492.72
2022-11-01T01:08:27.075Z,101495.56
2022-11-01T01:12:28.498Z,101476.72
2022-11-01T01:16:30.002Z,101484.69
2022-11-01T01:20:31.605Z,101480.06
2022-11-01T01:24:34.184Z,101477.00
2022-11-01T01:28:41.689Z,101464.88
2022-11-01T01:32:46.234Z,101458.69
2022-11-01T01:36:48.057Z,101467.56
2022-11-01T01:40:49.598Z,101474.69
2022-11-01T01:44:57.103Z,101462.06
2022-11-01T01:48:59.827Z,101468.53
2022-11-01T01:53:20.762Z,101465.53
2022-11-01T01:57:22.490Z,101463.03
2022-11-01T02:01:24.627Z,101460.88
2022-11-01T02:05:40.832Z,101443.47
2022-11-01T02:09:43.349Z,101429.47
2022-11-01T02:13:44.777Z,101441.16
2022-11-01T02:17:57.616Z,101445.25
2022-11-01T02:22:05.690Z,101432.75
2022-11-01T02:26:26.617Z,101405.22
2022-11-01T02:30:45.467Z,101410.50
2022-11-01T02:35:05.731Z,101406.38
2022-11-01T02:39:20.083Z,101411.13
2022-11-01T02:43:35.622Z,101406.44
2022-11-01T02:47:38.477Z,101405.00
2022-11-01T02:51:41.988Z,101394.06
2022-11-01T02:59:46.971Z,101373.81
2022-11-01T03:03:51.651Z,101366.84
2022-11-01T03:08:00.585Z,101359.53
2022-11-01T03:12:06.193Z,101346.22
2022-11-01T03:16:18.962Z,101347.91
2022-11-01T03:20:48.692Z,101352.00
2022-11-01T03:25:31.740Z,101350.19
2022-11-01T03:29:36.399Z,101343.69
2022-11-01T03:33:43.989Z,101322.50
2022-11-01T03:37:48.482Z,101313.34
2022-11-01T03:41:55.238Z,101309.31
2022-11-01T03:45:56.951Z,101313.66
2022-11-01T03:50:18.273Z,101302.38
2022-11-01T03:54:19.717Z,101305.41
2022-11-01T03:58:21.365Z,101302.97
2022-11-01T04:02:22.737Z,101311.66
2022-11-01T04:06:24.133Z,101312.81
2022-11-01T04:10:28.990Z,101311.16
2022-11-01T04:14:49.133Z,101311.69
2022-11-01T04:19:09.428Z,101312.03
2022-11-01T04:23:10.979Z,101298.41
2022-11-01T04:27:12.366Z,101296.13
2022-11-01T04:31:13.767Z,101304.81
2022-11-01T04:35:15.677Z,101297.53
2022-11-01T04:39:17.066Z,101297.00
2022-11-01T04:43:18.432Z,101292.50
2022-11-01T04:47:19.848Z,101283.16
2022-11-01T04:51:21.322Z,101279.69
2022-11-01T04:55:22.774Z,101250.19
2022-11-01T04:59:24.226Z,101244.97
2022-11-01T05:03:25.664Z,101251.81
2022-11-01T05:07:28.302Z,101245.31
2022-11-01T05:11:29.727Z,101258.81
2022-11-01T05:15:31.585Z,101244.66
2022-11-01T05:19:33.023Z,101230.81
2022-11-01T05:23:34.461Z,101223.50
2022-11-01T05:27:37.396Z,101219.38
2022-11-01T05:31:38.784Z,101207.16
2022-11-01T05:35:40.238Z,101190.16
2022-11-01T05:39:41.825Z,101175.47
2022-11-01T05:43:43.273Z,101174.31
2022-11-01T05:47:44.751Z,101164.78
2022-11-01T05:51:46.154Z,101180.63
2022-11-01T05:55:47.585Z,101178.56
2022-11-01T05:59:49.041Z,101179.63
2022-11-01T06:03:50.652Z,101172.81
2022-11-01T06:07:52.055Z,101165.31
2022-11-01T06:11:53.464Z,101172.41
2022-11-01T06:16:02.841Z,101171.56
2022-11-01T06:20:05.885Z,101169.97
2022-11-01T06:24:07.527Z,101164.28
2022-11-01T06:28:08.966Z,101166.97
2022-11-01T06:32:10.438Z,101150.25
2022-11-01T06:36:11.838Z,101165.69
2022-11-01T06:40:13.283Z,101165.38
2022-11-01T06:44:14.683Z,101165.47
2022-11-01T06:48:16.194Z,101171.75
2022-11-01T06:52:17.674Z,101162.84
2022-11-01T06:56:19.121Z,101171.34
2022-11-01T07:00:20.681Z,101172.91
2022-11-01T07:04:22.281Z,101164.13
2022-11-01T07:08:23.676Z,101198.41
2022-11-01T07:12:25.102Z,101195.47
2022-11-01T07:16:26.909Z,101189.97
2022-11-01T07:20:30.630Z,101185.41
2022-11-01T07:24:32.107Z,101185.25
2022-11-01T07:28:33.616Z,101197.53
2022-11-01T07:32:39.733Z,101200.56
2022-11-01T07:36:41.423Z,101182.97
2022-11-01T07:40:44.448Z,101166.69
2022-11-01T07:44:45.983Z,101181.31
2022-11-01T07:48:47.406Z,101184.41
2022-11-01T07:52:48.898Z,101185.19
2022-11-01T07:56:50.314Z,101180.41
2022-11-01T08:00:51.745Z,101186.16
2022-11-01T08:04:54.463Z,101185.88
2022-11-01T08:08:55.882Z,101199.72
2022-11-01T08:13:21.622Z,101187.84
2022-11-01T08:17:23.032Z,101190.88
2022-11-01T08:21:24.434Z,101203.03
2022-11-01T08:25:25.907Z,101201.16
2022-11-01T08:29:27.314Z,101199.47
2022-11-01T08:33:28.704Z,101222.69
2022-11-01T08:37:30.135Z,101210.75
2022-11-01T08:41:34.315Z,101206.16
2022-11-01T08:45:38.222Z,101217.16
2022-11-01T08:49:39.722Z,101214.88
2022-11-01T08:53:41.234Z,101216.41
2022-11-01T08:57:42.655Z,101217.50
2022-11-01T09:01:44.278Z,101215.09
2022-11-01T09:05:45.864Z,101220.75
2022-11-01T09:09:47.334Z,101220.34
2022-11-01T09:13:49.475Z,101196.28
2022-11-01T09:17:51.190Z,101202.03
2022-11-01T09:21:52.603Z,101197.34
2022-11-01T09:25:54.086Z,101204.66
2022-11-01T09:29:55.493Z,101204.94
2022-11-01T09:33:57.792Z,101208.88
2022-11-01T09:38:00.494Z,101222.47
2022-11-01T09:42:06.869Z,101220.53
2022-11-01T09:46:16.697Z,101232.78
2022-11-01T09:50:27.256Z,101234.66
2022-11-01T09:54:28.890Z,101232.41
2022-11-01T09:59:02.156Z,101226.97
2022-11-01T10:03:34.758Z,101223.94
2022-11-01T10:07:45.259Z,101223.81
2022-11-01T10:11:59.160Z,101227.47
2022-11-01T10:16:10.850Z,101222.16
2022-11-01T10:20:14.518Z,101223.97
2022-11-01T10:24:32.107Z,101222.69
2022-11-01T10:28:46.402Z,101232.47
2022-11-01T10:33:02.518Z,101234.69
2022-11-01T10:37:21.932Z,101244.13
2022-11-01T10:41:29.116Z,101249.00
2022-11-01T10:45:30.859Z,101234.56
2022-11-01T10:54:09.159Z,101233.03
2022-11-01T11:02:48.302Z,101232.78
2022-11-01T11:07:05.359Z,101233.28
2022-11-01T11:11:14.057Z,101233.47
2022-11-01T11:15:41.597Z,101235.34
2022-11-01T11:19:49.504Z,101246.50
2022-11-01T11:23:56.435Z,101243.28
2022-11-01T11:28:26.602Z,101252.38
2022-11-01T11:32:35.064Z,101241.13
2022-11-01T11:36:43.633Z,101246.63
2022-11-01T11:40:45.717Z,101246.88
2022-11-01T11:44:56.638Z,101243.53
2022-11-01T11:49:04.205Z,101243.31
2022-11-01T11:53:22.807Z,101242.78
2022-11-01T11:57:27.074Z,101240.94
2022-11-01T12:01:29.629Z,101241.06
2022-11-01T12:05:31.247Z,101239.06
2022-11-01T12:09:46.634Z,101244.31
2022-11-01T12:14:02.888Z,101235.78
2022-11-01T12:18:16.111Z,101241.31
2022-11-01T12:22:18.517Z,101249.50
2022-11-01T12:26:22.645Z,101251.31
2022-11-01T12:30:29.831Z,101254.34
2022-11-01T12:34:42.381Z,101264.88
2022-11-01T12:39:01.295Z,101260.97
2022-11-01T12:43:35.691Z,101270.38
2022-11-01T12:47:45.381Z,101268.28
2022-11-01T12:51:50.235Z,101261.22
2022-11-01T12:55:53.262Z,101271.53
2022-11-01T12:59:54.697Z,101273.34
2022-11-01T13:04:37.925Z,101275.81
2022-11-01T13:09:05.192Z,101284.09
2022-11-01T13:13:45.724Z,101281.25
2022-11-01T13:17:59.163Z,101283.13
2022-11-01T13:22:27.975Z,101283.88
2022-11-01T13:26:36.910Z,101298.63
2022-11-01T13:30:43.736Z,101286.56
2022-11-01T13:35:16.977Z,101303.63
2022-11-01T13:39:30.718Z,101299.97
2022-11-01T13:43:43.606Z,101309.91
2022-11-01T13:47:57.327Z,101315.81
2022-11-01T13:52:13.847Z,101319.94
2022-11-01T13:56:20.368Z,101323.00
2022-11-01T14:00:41.346Z,101321.72
2022-11-01T14:04:54.171Z,101331.56
2022-11-01T14:09:28.197Z,101327.66
2022-11-01T14:13:41.350Z,101342.25
2022-11-01T14:18:03.360Z,101345.50
2022-11-01T14:22:27.230Z,101352.25
2022-11-01T14:26:45.333Z,101357.19
2022-11-01T14:30:51.099Z,101366.19
2022-11-01T14:34:59.985Z,101359.66
2022-11-01T14:39:18.063Z,101368.31
2022-11-01T14:43:45.727Z,101380.88
2022-11-01T14:47:51.882Z,101387.31
2022-11-01T14:52:05.971Z,101394.94
2022-11-01T14:56:10.930Z,101403.00
2022-11-01T15:00:30.592Z,101402.44
2022-11-01T15:04:44.127Z,101415.56
2022-11-01T15:08:47.248Z,101423.41
2022-11-01T15:12:57.584Z,101417.03
2022-11-01T15:16:59.182Z,101433.53
2022-11-01T15:21:02.606Z,101418.75
2022-11-01T15:25:07.494Z,101427.06
2022-11-01T15:29:16.397Z,101435.63
2022-11-01T15:33:25.869Z,101440.16
2022-11-01T15:37:32.366Z,101440.63
2022-11-01T15:41:34.935Z,101444.25
2022-11-01T15:45:38.525Z,101454.47
2022-11-01T15:50:04.988Z,101464.19
2022-11-01T15:54:32.028Z,101459.63
2022-11-01T15:58:44.102Z,101458.97
2022-11-01T16:03:04.435Z,101460.97
2022-11-01T16:07:13.005Z,101472.59
2022-11-01T16:11:20.878Z,101474.31
2022-11-01T16:15:29.844Z,101476.41
2022-11-01T16:19:51.530Z,101480.53
2022-11-01T16:24:15.661Z,101483.34
2022-11-01T16:28:17.155Z,101480.22
2022-11-01T16:32:23.270Z,101477.94
2022-11-01T16:36:36.390Z,101473.84
2022-11-01T16:40:39.198Z,101483.66
2022-11-01T16:44:40.893Z,101491.03
2022-11-01T16:48:56.266Z,101492.06
2022-11-01T16:52:57.683Z,101500.34
2022-11-01T16:56:59.502Z,101507.72
2022-11-01T17:01:01.181Z,101506.28
2022-11-01T17:05:18.685Z,101514.41
2022-11-01T17:09:22.628Z,101509.06
2022-11-01T17:13:24.580Z,101508.19
2022-11-01T17:17:27.355Z,101508.22
2022-11-01T17:21:32.416Z,101505.66
2022-11-01T17:25:34.664Z,101513.84
2022-11-01T17:29:36.775Z,101518.97
2022-11-01T17:33:38.307Z,101527.03
2022-11-01T17:37:39.963Z,101533.06
2022-11-01T17:41:41.405Z,101533.66
2022-11-01T17:45:46.385Z,101549.59
2022-11-01T17:49:47.809Z,101546.13
2022-11-01T17:53:54.103Z,101545.34
2022-11-01T17:57:55.818Z,101543.72
2022-11-01T18:01:57.359Z,101544.88
2022-11-01T18:05:59.346Z,101545.00
2022-11-01T18:10:00.822Z,101549.56
2022-11-01T18:14:38.106Z,101552.38
2022-11-01T18:19:02.367Z,101562.25
2022-11-01T18:23:08.379Z,101561.38
2022-11-01T18:27:11.627Z,101565.94
2022-11-01T18:31:23.400Z,101569.47
2022-11-01T18:35:32.105Z,101571.19
2022-11-01T18:39:46.027Z,101566.78
2022-11-01T18:43:51.819Z,101559.16
2022-11-01T18:48:11.752Z,101567.09
2022-11-01T18:52:17.725Z,101563.53
2022-11-01T18:56:25.630Z,101560.06
2022-11-01T19:00:27.413Z,101572.34
2022-11-01T19:04:31.133Z,101560.16
2022-11-01T19:08:35.051Z,101568.88
2022-11-01T19:12:40.456Z,101564.56
2022-11-01T19:16:42.332Z,101564.50
2022-11-01T19:20:49.884Z,101558.50
2022-11-01T19:24:51.293Z,101558.34
2022-11-01T19:28:52.967Z,101557.47
2022-11-01T19:32:59.148Z,101564.34
2022-11-01T19:37:06.200Z,101559.97
2022-11-01T19:41:10.822Z,101573.25
2022-11-01T19:45:12.180Z,101560.81
2022-11-01T19:49:25.689Z,101572.63
2022-11-01T19:53:37.743Z,101561.09
2022-11-01T19:57:42.337Z,101566.25
2022-11-01T20:01:46.761Z,101569.13
2022-11-01T20:05:48.281Z,101579.69
2022-11-01T20:09:51.077Z,101583.97
2022-11-01T20:13:55.027Z,101580.59
2022-11-01T20:17:56.453Z,101580.31
2022-11-01T20:21:58.816Z,101581.59
2022-11-01T20:26:01.026Z,101579.56
2022-11-01T20:30:02.504Z,101585.63
2022-11-01T20:34:04.216Z,101586.75
2022-11-01T20:38:05.728Z,101597.94
2022-11-01T20:42:07.994Z,101595.44
2022-11-01T20:46:09.502Z,101596.25
2022-11-01T20:50:12.959Z,101596.44
2022-11-01T20:54:17.848Z,101599.22
2022-11-01T20:58:19.883Z,101598.34
2022-11-01T21:02:21.955Z,101601.88
2022-11-01T21:06:27.903Z,101598.06
2022-11-01T21:10:35.008Z,101602.50
2022-11-01T21:14:37.059Z,101599.47
2022-11-01T21:18:43.491Z,101602.81
2022-11-01T21:22:44.905Z,101607.13
2022-11-01T21:26:52.013Z,101597.44
2022-11-01T21:31:19.359Z,101603.66
2022-11-01T21:35:20.742Z,101602.03
2022-11-01T21:39:25.315Z,101599.31
2022-11-01T21:43:33.126Z,101592.28
2022-11-01T21:47:34.528Z,101603.03
2022-11-01T21:51:35.933Z,101606.63
2022-11-01T21:55:37.372Z,101599.56
2022-11-01T21:59:39.545Z,101595.16
2022-11-01T22:03:40.942Z,101591.69
2022-11-01T22:07:42.358Z,101582.81
2022-11-01T22:11:44.070Z,101587.94
2022-11-01T22:15:45.843Z,101593.34
2022-11-01T22:19:47.314Z,101588.19
2022-11-01T22:23:48.746Z,101588.16
2022-11-01T22:27:50.140Z,101583.63
2022-11-01T22:31:51.589Z,101586.31
2022-11-01T22:35:53.252Z,101577.59
2022-11-01T22:39:55.362Z,101579.38
2022-11-01T22:43:59.295Z,101578.38
2022-11-01T22:48:00.835Z,101579.38
2022-11-01T22:52:29.558Z,101565.28
2022-11-01T22:56:30.969Z,101567.97
2022-11-01T23:00:39.765Z,101560.84
2022-11-01T23:04:41.175Z,101569.00
2022-11-01T23:08:42.562Z,101560.00
2022-11-01T23:13:03.417Z,101564.41
2022-11-01T23:17:19.825Z,101566.19
2022-11-01T23:21:22.156Z,101567.06
2022-11-01T23:25:25.584Z,101559.94
2022-11-01T23:29:26.964Z,101552.00
2022-11-01T23:33:35.949Z,101552.00
2022-11-01T23:37:37.531Z,101537.78
2022-11-01T23:41:46.960Z,101548.47
2022-11-01T23:45:49.023Z,101546.69
2022-11-01T23:49:58.020Z,101552.88
2022-11-01T23:53:59.824Z,101557.19
2022-11-01T23:58:03.034Z,101547.50
